Polfoss — V2PN7 — position and weather

sailwx.info

Track history (hours):
 
Tides and Currents Weather Stations Pressure Air Temp Water Temp Dewpoint Dewpoint Depression Visibility Wind Speed Wind Dir Waves Ship Positions

Polfoss

Last reported at 2015-Sep-02 21:33 UTC. Time now 2015-Sep-02 21:48 UTC.
Position N 53°35' W 000°04'.

Length 82 m; draft 5.3 m.

Type: Cargo ship. MMSI: 305081000.

Date/timePositionNaut miles runAvg speedWind from/ knotsBaromVisibWave heightAir tempDewpointWater temp
2015-Sep-02 21:33N 53°35' W 000°04'0 0.1
2015-Sep-02 20:31N 53°35' W 000°04'0 0.0
2015-Sep-02 19:33N 53°35' W 000°04'0 0.0
2015-Sep-02 18:32N 53°35' W 000°04'0 0.0
2015-Sep-02 17:32N 53°35' W 000°04'0 0.0
2015-Sep-02 16:31N 53°35' W 000°04'0 0.0
2015-Sep-02 15:31N 53°35' W 000°04'0 0.0
2015-Sep-02 14:33N 53°35' W 000°04'0 0.0
2015-Sep-02 13:33N 53°35' W 000°04'0 0.0
2015-Sep-02 12:32N 53°35' W 000°04'0 0.0
2015-Sep-02 11:31N 53°35' W 000°04'0 0.0
2015-Sep-02 10:31N 53°35' W 000°04'0 0.0
2015-Sep-02 09:33N 53°35' W 000°04'0 0.0
2015-Sep-02 08:32N 53°35' W 000°04'0 0.0
2015-Sep-02 07:32N 53°35' W 000°04'0 0.3
2015-Sep-02 06:34N 53°35' W 000°04'5 5.0
2015-Sep-02 05:34N 53°35' E 000°04'9 9.1
2015-Sep-02 04:33N 53°31' E 000°18'4112.5
2015-Sep-02 01:15N 53°14' E 001°21'1114.1
2015-Sep-02 00:29N 53°10' E 001°37'1212.7
2015-Sep-01 23:33N 53°05' E 001°56'8411.9
2015-Sep-01 16:33N 52°31' E 004°02'1211.9
2015-Sep-01 15:33N 52°30' E 004°22'9 8.9
2015-Sep-01 14:34N 52°28' E 004°36'2 2.4
2015-Sep-01 13:33N 52°28' E 004°40'0 0.0
2015-Sep-01 12:33N 52°28' E 004°40'0 0.0
2015-Sep-01 11:33N 52°28' E 004°40'0 0.0
2015-Sep-01 10:33N 52°28' E 004°40'0 0.0
2015-Sep-01 09:33N 52°28' E 004°40'0 0.0
2015-Sep-01 08:33N 52°28' E 004°40'0 0.0
2015-Sep-01 07:33N 52°28' E 004°40'0 0.0
2015-Sep-01 06:33N 52°28' E 004°40'0 0.0
2015-Sep-01 05:33N 52°28' E 004°40'0 0.0
2015-Sep-01 04:33N 52°28' E 004°40'0 0.0
2015-Sep-01 03:33N 52°28' E 004°40'0 0.0
2015-Sep-01 02:33N 52°28' E 004°40'0 0.0
2015-Sep-01 01:33N 52°28' E 004°40'0 0.0
2015-Sep-01 00:33N 52°28' E 004°40'0 0.0
2015-Aug-31 23:33N 52°28' E 004°40'0 0.0
2015-Aug-31 22:33N 52°28' E 004°40'0 0.0
2015-Aug-31 21:33N 52°28' E 004°40'0 0.0
2015-Aug-31 20:33N 52°28' E 004°40'0 0.0
2015-Aug-31 19:33N 52°28' E 004°40'0 0.0
2015-Aug-31 18:33N 52°28' E 004°40'0 0.0
2015-Aug-31 17:33N 52°28' E 004°40'0 0.0
2015-Aug-31 16:33N 52°28' E 004°40'0 0.0
2015-Aug-31 15:33N 52°28' E 004°40'0 0.0
2015-Aug-31 14:33N 52°28' E 004°40'0 0.0
2015-Aug-31 13:33N 52°28' E 004°40'0 0.0
2015-Aug-31 12:33N 52°28' E 004°40'0 0.0
2015-Aug-31 11:33N 52°28' E 004°40'0 0.0
2015-Aug-31 10:33N 52°28' E 004°40'0 0.0
2015-Aug-31 09:33N 52°28' E 004°40'0 0.0
2015-Aug-31 08:33N 52°28' E 004°40'0 0.0
2015-Aug-31 07:33N 52°28' E 004°40'0 0.0
2015-Aug-31 06:33N 52°28' E 004°40'0 0.0
2015-Aug-31 05:33N 52°28' E 004°40'0 0.0
2015-Aug-31 04:33N 52°28' E 004°40'0 0.0
2015-Aug-31 03:33N 52°28' E 004°40'0 0.0
2015-Aug-31 02:33N 52°28' E 004°40'0 0.0
2015-Aug-31 01:33N 52°28' E 004°40'0 0.0
2015-Aug-31 00:33N 52°28' E 004°40'0 0.0
2015-Aug-30 23:33N 52°28' E 004°40'0 0.0
2015-Aug-30 22:33N 52°28' E 004°40'0 0.0
2015-Aug-30 21:33N 52°28' E 004°40'0 0.0
2015-Aug-30 20:33N 52°28' E 004°40'0 0.0
2015-Aug-30 19:33N 52°28' E 004°40'0 0.0
2015-Aug-30 18:33N 52°28' E 004°40'0 0.0
2015-Aug-30 17:33N 52°28' E 004°40'0 0.0
2015-Aug-30 16:33N 52°28' E 004°40'0 0.0
2015-Aug-30 15:33N 52°28' E 004°40'0 0.0
2015-Aug-30 14:33N 52°28' E 004°40'0 0.0
2015-Aug-30 13:33N 52°28' E 004°40'2 2.4
2015-Aug-30 12:33N 52°28' E 004°36'6 5.8
2015-Aug-30 11:34N 52°32' E 004°29'1514.9
2015-Aug-30 10:34N 52°47' E 004°29'1615.1
2015-Aug-30 09:32N 53°02' E 004°30'2612.8
2015-Aug-30 07:30N 53°28' E 004°36'1413.5
2015-Aug-30 06:25N 53°42' E 004°43'1213.6
2015-Aug-30 05:33N 53°53' E 004°50'1413.7
2015-Aug-30 04:33N 54°06' E 004°57'1413.8
2015-Aug-30 03:33N 54°20' E 004°57'1513.9
2015-Aug-30 02:27N 54°35' E 004°57'1213.8
2015-Aug-30 01:33N 54°47' E 004°58'23713.0
2015-Aug-29 07:20N 58°44' E 005°18'1012.9
2015-Aug-29 06:33N 58°54' E 005°18'1312.9
2015-Aug-29 05:33N 59°07' E 005°20'2612.8
2015-Aug-29 03:33N 59°32' E 005°12'1414.0
2015-Aug-29 02:33N 59°44' E 005°28'216 5.6
2015-Aug-27 12:16N 63°10' E 007°43'4913.2
2015-Aug-27 08:33N 63°36' E 009°16'1313.4
2015-Aug-27 07:33N 63°50' E 009°20'1413.5
2015-Aug-27 06:31N 64°02' E 009°34'1413.5
2015-Aug-27 05:30N 64°14' E 009°48'4213.8
2015-Aug-27 02:27N 64°44' E 010°58'1213.4
2015-Aug-27 01:33N 64°53' E 011°17'1413.8
2015-Aug-27 00:33N 65°02' E 011°42'8413.2
2015-Aug-26 18:09N 66°20' E 012°57'913.9
2015-Aug-26 17:31N 66°29' E 012°59'2712.8
2015-Aug-26 15:25N 66°54' E 013°25'1112.8
2015-Aug-26 14:33N 67°02' E 013°45'1413.6
2015-Aug-26 13:33N 67°12' E 014°07'1414.0
2015-Aug-26 12:33N 67°24' E 014°26'1513.6
2015-Aug-26 11:29N 67°38' E 014°17'1313.8
2015-Aug-26 10:32N 67°51' E 014°21'142 3.8
2015-Aug-24 21:17N 69°35' E 018°49'4 5.2
2015-Aug-24 20:33N 69°38' E 018°57'0 0.0
2015-Aug-24 19:32N 69°38' E 018°57'0 0.0
2015-Aug-24 18:33N 69°38' E 018°57'0 0.0
2015-Aug-24 17:33N 69°38' E 018°57'0 0.0
2015-Aug-24 16:33N 69°38' E 018°57'0 0.0
2015-Aug-24 15:33N 69°38' E 018°57'0 0.0
2015-Aug-24 14:33N 69°38' E 018°57'0 0.0
2015-Aug-24 13:33N 69°38' E 018°57'0 0.0
2015-Aug-24 12:32N 69°38' E 018°57'0 0.0
2015-Aug-24 11:33N 69°38' E 018°57'0 0.0
2015-Aug-24 10:33N 69°38' E 018°57'0 0.0
2015-Aug-24 09:33N 69°38' E 018°57'0 0.0
2015-Aug-24 08:33N 69°38' E 018°57'0 0.0
2015-Aug-24 07:33N 69°38' E 018°57'0 0.0
2015-Aug-24 06:33N 69°38' E 018°57'0 0.0
2015-Aug-24 05:33N 69°38' E 018°57'0 0.0
2015-Aug-24 04:33N 69°38' E 018°57'0 0.0
2015-Aug-24 03:33N 69°38' E 018°57'2 1.8
2015-Aug-24 02:33N 69°39' E 018°58'0 0.0
2015-Aug-24 01:33N 69°39' E 018°58'0 0.0
2015-Aug-24 00:33N 69°39' E 018°58'0 0.0
2015-Aug-23 23:33N 69°39' E 018°58'0 0.0
2015-Aug-23 22:33N 69°39' E 018°58'  
Track history (hours):
 
Tides and Currents Weather Stations Pressure Air Temp Water Temp Dewpoint Dewpoint Depression Visibility Wind Speed Wind Dir Waves Ship Positions

Polfoss

Last reported at 2015-Sep-02 21:33 UTC. Time now 2015-Sep-02 21:48 UTC.
Position N 53°35' W 000°04'.

Length 82 m; draft 5.3 m.

Type: Cargo ship. MMSI: 305081000.

Date/timePositionNaut miles runAvg speedWind from/ knotsBaromVisibWave heightAir tempDewpointWater temp
2015-Sep-02 21:33N 53°35' W 000°04'0 0.1
2015-Sep-02 20:31N 53°35' W 000°04'0 0.0
2015-Sep-02 19:33N 53°35' W 000°04'0 0.0
2015-Sep-02 18:32N 53°35' W 000°04'0 0.0
2015-Sep-02 17:32N 53°35' W 000°04'0 0.0
2015-Sep-02 16:31N 53°35' W 000°04'0 0.0
2015-Sep-02 15:31N 53°35' W 000°04'0 0.0
2015-Sep-02 14:33N 53°35' W 000°04'0 0.0
2015-Sep-02 13:33N 53°35' W 000°04'0 0.0
2015-Sep-02 12:32N 53°35' W 000°04'0 0.0
2015-Sep-02 11:31N 53°35' W 000°04'0 0.0
2015-Sep-02 10:31N 53°35' W 000°04'0 0.0
2015-Sep-02 09:33N 53°35' W 000°04'0 0.0
2015-Sep-02 08:32N 53°35' W 000°04'0 0.0
2015-Sep-02 07:32N 53°35' W 000°04'0 0.3
2015-Sep-02 06:34N 53°35' W 000°04'5 5.0
2015-Sep-02 05:34N 53°35' E 000°04'9 9.1
2015-Sep-02 04:33N 53°31' E 000°18'4112.5
2015-Sep-02 01:15N 53°14' E 001°21'1114.1
2015-Sep-02 00:29N 53°10' E 001°37'1212.7
2015-Sep-01 23:33N 53°05' E 001°56'8411.9
2015-Sep-01 16:33N 52°31' E 004°02'1211.9
2015-Sep-01 15:33N 52°30' E 004°22'9 8.9
2015-Sep-01 14:34N 52°28' E 004°36'2 2.4
2015-Sep-01 13:33N 52°28' E 004°40'0 0.0
2015-Sep-01 12:33N 52°28' E 004°40'0 0.0
2015-Sep-01 11:33N 52°28' E 004°40'0 0.0
2015-Sep-01 10:33N 52°28' E 004°40'0 0.0
2015-Sep-01 09:33N 52°28' E 004°40'0 0.0
2015-Sep-01 08:33N 52°28' E 004°40'0 0.0
2015-Sep-01 07:33N 52°28' E 004°40'0 0.0
2015-Sep-01 06:33N 52°28' E 004°40'0 0.0
2015-Sep-01 05:33N 52°28' E 004°40'0 0.0
2015-Sep-01 04:33N 52°28' E 004°40'0 0.0
2015-Sep-01 03:33N 52°28' E 004°40'0 0.0
2015-Sep-01 02:33N 52°28' E 004°40'0 0.0
2015-Sep-01 01:33N 52°28' E 004°40'0 0.0
2015-Sep-01 00:33N 52°28' E 004°40'0 0.0
2015-Aug-31 23:33N 52°28' E 004°40'0 0.0
2015-Aug-31 22:33N 52°28' E 004°40'0 0.0
2015-Aug-31 21:33N 52°28' E 004°40'0 0.0
2015-Aug-31 20:33N 52°28' E 004°40'0 0.0
2015-Aug-31 19:33N 52°28' E 004°40'0 0.0
2015-Aug-31 18:33N 52°28' E 004°40'0 0.0
2015-Aug-31 17:33N 52°28' E 004°40'0 0.0
2015-Aug-31 16:33N 52°28' E 004°40'0 0.0
2015-Aug-31 15:33N 52°28' E 004°40'0 0.0
2015-Aug-31 14:33N 52°28' E 004°40'0 0.0
2015-Aug-31 13:33N 52°28' E 004°40'0 0.0
2015-Aug-31 12:33N 52°28' E 004°40'0 0.0
2015-Aug-31 11:33N 52°28' E 004°40'0 0.0
2015-Aug-31 10:33N 52°28' E 004°40'0 0.0
2015-Aug-31 09:33N 52°28' E 004°40'0 0.0
2015-Aug-31 08:33N 52°28' E 004°40'0 0.0
2015-Aug-31 07:33N 52°28' E 004°40'0 0.0
2015-Aug-31 06:33N 52°28' E 004°40'0 0.0
2015-Aug-31 05:33N 52°28' E 004°40'0 0.0
2015-Aug-31 04:33N 52°28' E 004°40'0 0.0
2015-Aug-31 03:33N 52°28' E 004°40'0 0.0
2015-Aug-31 02:33N 52°28' E 004°40'0 0.0
2015-Aug-31 01:33N 52°28' E 004°40'0 0.0
2015-Aug-31 00:33N 52°28' E 004°40'0 0.0
2015-Aug-30 23:33N 52°28' E 004°40'0 0.0
2015-Aug-30 22:33N 52°28' E 004°40'0 0.0
2015-Aug-30 21:33N 52°28' E 004°40'0 0.0
2015-Aug-30 20:33N 52°28' E 004°40'0 0.0
2015-Aug-30 19:33N 52°28' E 004°40'0 0.0
2015-Aug-30 18:33N 52°28' E 004°40'0 0.0
2015-Aug-30 17:33N 52°28' E 004°40'0 0.0
2015-Aug-30 16:33N 52°28' E 004°40'0 0.0
2015-Aug-30 15:33N 52°28' E 004°40'0 0.0
2015-Aug-30 14:33N 52°28' E 004°40'0 0.0
2015-Aug-30 13:33N 52°28' E 004°40'2 2.4
2015-Aug-30 12:33N 52°28' E 004°36'6 5.8
2015-Aug-30 11:34N 52°32' E 004°29'1514.9
2015-Aug-30 10:34N 52°47' E 004°29'1615.1
2015-Aug-30 09:32N 53°02' E 004°30'2612.8
2015-Aug-30 07:30N 53°28' E 004°36'1413.5
2015-Aug-30 06:25N 53°42' E 004°43'1213.6
2015-Aug-30 05:33N 53°53' E 004°50'1413.7
2015-Aug-30 04:33N 54°06' E 004°57'1413.8
2015-Aug-30 03:33N 54°20' E 004°57'1513.9
2015-Aug-30 02:27N 54°35' E 004°57'1213.8
2015-Aug-30 01:33N 54°47' E 004°58'23713.0
2015-Aug-29 07:20N 58°44' E 005°18'1012.9
2015-Aug-29 06:33N 58°54' E 005°18'1312.9
2015-Aug-29 05:33N 59°07' E 005°20'2612.8
2015-Aug-29 03:33N 59°32' E 005°12'1414.0
2015-Aug-29 02:33N 59°44' E 005°28'216 5.6
2015-Aug-27 12:16N 63°10' E 007°43'4913.2
2015-Aug-27 08:33N 63°36' E 009°16'1313.4
2015-Aug-27 07:33N 63°50' E 009°20'1413.5
2015-Aug-27 06:31N 64°02' E 009°34'1413.5
2015-Aug-27 05:30N 64°14' E 009°48'4213.8
2015-Aug-27 02:27N 64°44' E 010°58'1213.4
2015-Aug-27 01:33N 64°53' E 011°17'1413.8
2015-Aug-27 00:33N 65°02' E 011°42'8413.2
2015-Aug-26 18:09N 66°20' E 012°57'913.9
2015-Aug-26 17:31N 66°29' E 012°59'2712.8
2015-Aug-26 15:25N 66°54' E 013°25'1112.8
2015-Aug-26 14:33N 67°02' E 013°45'1413.6
2015-Aug-26 13:33N 67°12' E 014°07'1414.0
2015-Aug-26 12:33N 67°24' E 014°26'1513.6
2015-Aug-26 11:29N 67°38' E 014°17'1313.8
2015-Aug-26 10:32N 67°51' E 014°21'142 3.8
2015-Aug-24 21:17N 69°35' E 018°49'4 5.2
2015-Aug-24 20:33N 69°38' E 018°57'0 0.0
2015-Aug-24 19:32N 69°38' E 018°57'0 0.0
2015-Aug-24 18:33N 69°38' E 018°57'0 0.0
2015-Aug-24 17:33N 69°38' E 018°57'0 0.0
2015-Aug-24 16:33N 69°38' E 018°57'0 0.0
2015-Aug-24 15:33N 69°38' E 018°57'0 0.0
2015-Aug-24 14:33N 69°38' E 018°57'0 0.0
2015-Aug-24 13:33N 69°38' E 018°57'0 0.0
2015-Aug-24 12:32N 69°38' E 018°57'0 0.0
2015-Aug-24 11:33N 69°38' E 018°57'0 0.0
2015-Aug-24 10:33N 69°38' E 018°57'0 0.0
2015-Aug-24 09:33N 69°38' E 018°57'0 0.0
2015-Aug-24 08:33N 69°38' E 018°57'0 0.0
2015-Aug-24 07:33N 69°38' E 018°57'0 0.0
2015-Aug-24 06:33N 69°38' E 018°57'0 0.0
2015-Aug-24 05:33N 69°38' E 018°57'0 0.0
2015-Aug-24 04:33N 69°38' E 018°57'0 0.0
2015-Aug-24 03:33N 69°38' E 018°57'2 1.8
2015-Aug-24 02:33N 69°39' E 018°58'0 0.0
2015-Aug-24 01:33N 69°39' E 018°58'0 0.0
2015-Aug-24 00:33N 69°39' E 018°58'0 0.0
2015-Aug-23 23:33N 69°39' E 018°58'0 0.0
2015-Aug-23 22:33N 69°39' E 018°58'  

Dump ship's entire track history